Pampulha - Carlos Drummond de Andrade Airport

SBBH · Minas Gerais, Brazilië

METAR historie SBBH · Pampulha - Carlos Drummond de Andrade Airport

Hieronder zie je METAR's van de afgelopen dagen. Kies een jaar om door oudere METAR's te bladeren, vanaf het jaar 2007.

25 juni 2024

Tijd Code Weer Temp. Zicht Plafond Wind METAR/SPECI
11:00
V
26 °C 10 km+ - 070° 070° 3 kt METAR SBBH 251400Z 07003KT CAVOK 26/14 Q1022
10:00
V
23 °C 10 km+ - 080° 080° 3 kt METAR SBBH 251300Z 08003KT CAVOK 23/15 Q1023
09:00
V
21 °C 10 km+ - 070° 070° 4 kt METAR SBBH 251200Z 07004KT CAVOK 21/15 Q1022
08:00
V
17 °C 10 km+ - 360° 360° 0 kt METAR SBBH 251100Z 00000KT CAVOK 17/15 Q1022
07:00
V
14 °C 10 km+ - 360° 360° 0 kt METAR SBBH 251000Z 00000KT CAVOK 14/14 Q1021
06:00
V
14 °C 10 km+ - 360° 360° 0 kt METAR SBBH 250900Z 00000KT CAVOK 14/14 Q1020

24 juni 2024

Tijd Code Weer Temp. Zicht Plafond Wind METAR/SPECI
18:00
V
24 °C 10 km+ - 020° 020° 3 kt METAR SBBH 242100Z 02003KT CAVOK 24/14 Q1019
17:00
V
25 °C 10 km+ - 300° 300° 3 kt METAR SBBH 242000Z 30003KT CAVOK 25/12 Q1019
16:00
V
26 °C 10 km+ 7.000 ft 260° 260° 5 kt METAR SBBH 241900Z 26005KT 9999 FEW045 BKN070 26/12 Q1018
15:00
V
26 °C 10 km+ 5.500 ft 330° 330° 5 kt METAR SBBH 241800Z 33005KT 9999 FEW045 BKN055 26/11 Q1018
14:00
V
27 °C 10 km+ - 310° 310° 6 kt METAR SBBH 241700Z 31006KT 9999 SCT045 SCT050 27/11 Q1019
13:00
V
28 °C 10 km+ 3.500 ft 010° 010° 6 kt METAR SBBH 241600Z 01006KT 9999 BKN035 28/12 Q1019
12:00
V
26 °C 10 km+ - 360° 360° 4 kt METAR SBBH 241500Z 36004KT 9999 SCT030 26/15 Q1020
11:00
V
25 °C 10 km+ - 040° 040° 4 kt METAR SBBH 241400Z 04004KT 9999 SCT030 25/16 Q1022
10:00
V
23 °C 10 km+ - 100° 100° 4 kt METAR SBBH 241300Z 10004KT CAVOK 23/16 Q1022
09:00
V
21 °C 10 km+ - 100° 100° 6 kt METAR SBBH 241200Z 10006KT CAVOK 21/16 Q1022
08:00
V
19 °C 10 km+ - 100° 100° 6 kt METAR SBBH 241100Z 10006KT CAVOK 19/16 Q1021
07:00
V
17 °C 10 km+ - 360° 360° 0 kt METAR SBBH 241000Z 00000KT CAVOK 17/16 Q1021
06:00
V
18 °C 10 km+ - 100° 100° 6 kt METAR SBBH 240900Z 10006KT CAVOK 18/16 Q1020

23 juni 2024

Tijd Code Weer Temp. Zicht Plafond Wind METAR/SPECI
23:00
V
19 °C 10 km+ - 100° 100° 4 kt METAR SBBH 240200Z 10004KT CAVOK 19/16 Q1021
22:00
V
21 °C 10 km+ - 100° 100° 5 kt METAR SBBH 240100Z 10005KT CAVOK 21/16 Q1021
21:00
V
21 °C 10 km+ - 090° 090° 3 kt METAR SBBH 240000Z 09003KT CAVOK 21/16 Q1021
20:00
V
21 °C 10 km+ - 070° 070° 3 kt METAR SBBH 232300Z 07003KT CAVOK 21/16 Q1020
19:00
V
22 °C 10 km+ - 100° 100° 5 kt METAR SBBH 232200Z 10005KT CAVOK 22/16 Q1020
18:00
V
22 °C 10 km+ - 090° 090° 4 kt METAR SBBH 232100Z 09004KT 9999 SCT048 22/15 Q1020
17:00
V
24 °C 10 km+ - 080° 080° 6 kt METAR SBBH 232000Z 08006KT 9999 SCT048 24/15 Q1019
16:00
V
25 °C 10 km+ - 070° 070° 5 kt METAR SBBH 231900Z 07005KT 9999 SCT045 25/14 Q1019
15:00
V
26 °C 10 km+ 4.500 ft 040° 040° 5 kt METAR SBBH 231800Z 04005KT 9999 BKN045 26/15 Q1019
14:00
V
25 °C 10 km+ 4.000 ft 050° 050° 2 kt METAR SBBH 231700Z 05002KT 9999 BKN040 SCT080 25/14 Q1020
13:00
V
24 °C 10 km+ 4.000 ft 030° 030° 3 kt METAR SBBH 231600Z 03003KT 9999 BKN040 SCT080 24/15 Q1021
12:00
V
24 °C 10 km+ 4.000 ft 300° 300° 5 kt METAR SBBH 231500Z 30005KT 9999 BKN040 SCT080 24/15 Q1022
11:00
V
24 °C 10 km+ - 070° 070° 6 kt METAR SBBH 231400Z 07006KT 9999 FEW023 SCT060 24/15 Q1022
10:00
V
23 °C 10 km+ - 080° 080° 6 kt METAR SBBH 231300Z 08006KT CAVOK 23/15 Q1023
09:00
V
20 °C 10 km+ 4.900 ft 090° 090° 4 kt METAR SBBH 231200Z 09004KT 9999 BKN049 20/15 Q1023
08:00
V
18 °C 10 km+ 4.900 ft 080° 080° 3 kt METAR SBBH 231100Z 08003KT 9999 BKN049 18/15 Q1022
07:00
V
15 °C 10 km+ 4.900 ft 360° 360° 0 kt METAR SBBH 231000Z 00000KT 9999 BKN049 15/15 Q1021
06:00
V
15 °C 10 km+ - 070° 070° 2 kt METAR SBBH 230900Z 07002KT CAVOK 15/14 Q1020
Wijziging doorgeven